Time;durP1;ratioP1;P1;durP2;ratioP2;P2;SDS_P1;SDS_P2;PMS_P1;PMS_P2;Temp;Humidity;BMP_temperature;BMP_pressure;BME280_temperature;BME280_humidity;BME280_pressure;Samples;Min_cycle;Max_cycle;Signal;HPM_P1;HPM_P2
2023/03/15 00:02:08;;;;;;;43.63;11.95;;;;;;;;;;4984360;28;20039;-45
2023/03/15 00:04:35;;;;;;;48.40;12.30;;;;;;;;;;4979757;28;20047;-45
2023/03/15 00:07:02;;;;;;;49.47;11.38;;;;;;;;;;4979590;28;20053;-45
2023/03/15 00:09:28;;;;;;;37.80;11.05;;;;;;;;;;4980755;28;20042;-47
2023/03/15 00:11:55;;;;;;;43.97;11.13;;;;;;;;;;4972276;28;20078;-51
2023/03/15 00:14:21;;;;;;;44.53;10.77;;;;;;;;;;4982792;28;20106;-46
2023/03/15 00:16:48;;;;;;;44.90;11.25;;;;;;;;;;4979947;28;20039;-46
2023/03/15 00:19:15;;;;;;;46.33;10.80;;;;;;;;;;4979560;28;20051;-47
2023/03/15 00:21:42;;;;;;;71.97;13.35;;;;;;;;;;4977009;28;20129;-46
2023/03/15 00:24:10;;;;;;;36.05;11.27;;;;;;;;;;4977166;28;20038;-47
2023/03/15 00:26:37;;;;;;;40.00;10.50;;;;;;;;;;4979384;28;20460;-44
2023/03/15 00:29:03;;;;;;;70.07;12.98;;;;;;;;;;4973834;28;20039;-48
2023/03/15 00:31:30;;;;;;;66.05;12.88;;;;;;;;;;4985782;28;20047;-49
2023/03/15 00:33:56;;;;;;;56.00;12.18;;;;;;;;;;4977635;28;20043;-46
2023/03/15 00:36:24;;;;;;;57.58;12.20;;;;;;;;;;4979486;28;20113;-45
2023/03/15 00:38:54;;;;;;;49.88;12.27;;;;;;;;;;4980882;28;20121;-44
2023/03/15 00:41:21;;;;;;;47.88;11.73;;;;;;;;;;4976872;28;20050;-44
2023/03/15 00:43:48;;;;;;;69.32;13.32;;;;;;;;;;4980266;28;20038;-46
2023/03/15 00:46:14;;;;;;;31.63;10.18;;;;;;;;;;4978741;28;20043;-47
2023/03/15 00:48:41;;;;;;;39.05;10.57;;;;;;;;;;4979440;28;20046;-46
2023/03/15 00:51:12;;;;;;;116.60;17.00;;;;;;;;;;4972910;28;20146;-55
2023/03/15 00:53:41;;;;;;;46.42;11.05;;;;;;;;;;4978441;28;20042;-54
2023/03/15 00:56:12;;;;;;;57.17;12.25;;;;;;;;;;4978300;28;20046;-52
2023/03/15 00:58:38;;;;;;;34.67;8.63;;;;;;;;;;4984252;28;20092;-51
2023/03/15 01:01:13;;;;;;;41.15;6.93;;;;;;;;;;4981176;28;20411;-54
2023/03/15 01:03:40;;;;;;;55.90;7.40;;;;;;;;;;4999617;28;20046;-54
2023/03/15 01:06:11;;;;;;;27.33;4.85;;;;;;;;;;4980619;28;20054;-53
2023/03/15 01:08:38;;;;;;;32.28;5.03;;;;;;;;;;4981451;28;20042;-51
2023/03/15 01:11:06;;;;;;;92.85;8.88;;;;;;;;;;4986297;28;20038;-53
2023/03/15 01:13:32;;;;;;;54.40;6.13;;;;;;;;;;4980663;28;20744;-50
2023/03/15 01:15:59;;;;;;;32.13;4.63;;;;;;;;;;4982578;28;20065;-53
2023/03/15 01:18:26;;;;;;;48.25;5.55;;;;;;;;;;4984731;28;20047;-53
2023/03/15 01:20:52;;;;;;;25.90;3.78;;;;;;;;;;4962013;28;20053;-53
2023/03/15 01:23:19;;;;;;;43.50;4.85;;;;;;;;;;4986375;28;20534;-54
2023/03/15 01:25:46;;;;;;;84.80;7.22;;;;;;;;;;4982874;28;20045;-52
2023/03/15 01:28:12;;;;;;;18.70;2.58;;;;;;;;;;4980265;28;20073;-49
2023/03/15 01:30:39;;;;;;;21.08;2.83;;;;;;;;;;4977465;28;20134;-50
2023/03/15 01:33:06;;;;;;;61.35;5.53;;;;;;;;;;4986959;28;20128;-52
2023/03/15 01:35:32;;;;;;;31.48;2.97;;;;;;;;;;4985010;28;20718;-52
2023/03/15 01:37:59;;;;;;;31.45;3.10;;;;;;;;;;4980541;28;20050;-54
2023/03/15 01:40:27;;;;;;;62.17;4.90;;;;;;;;;;4980517;28;20076;-51
2023/03/15 01:43:03;;;;;;;37.53;3.53;;;;;;;;;;4979717;28;20578;-51
2023/03/15 01:45:48;;;;;;;35.88;3.80;;;;;;;;;;4981511;28;20043;-52
2023/03/15 01:48:15;;;;;;;41.95;4.07;;;;;;;;;;4979685;28;20459;-51
2023/03/15 01:50:42;;;;;;;38.97;4.43;;;;;;;;;;4980669;28;20169;-53
2023/03/15 01:53:09;;;;;;;221.80;15.30;;;;;;;;;;4983310;28;20077;-44
2023/03/15 01:55:36;;;;;;;79.38;6.00;;;;;;;;;;4973827;28;20106;-45
2023/03/15 01:58:07;;;;;;;27.48;3.03;;;;;;;;;;4976784;28;20057;-46
2023/03/15 02:00:37;;;;;;;44.50;4.22;;;;;;;;;;4982863;28;20050;-44
2023/03/15 02:03:16;;;;;;;37.72;3.45;;;;;;;;;;4979230;28;20050;-46
2023/03/15 02:05:48;;;;;;;70.75;5.70;;;;;;;;;;4978707;28;20050;-48
2023/03/15 02:08:25;;;;;;;29.60;3.08;;;;;;;;;;4974807;28;20051;-47
2023/03/15 02:10:52;;;;;;;45.22;4.13;;;;;;;;;;4980173;28;20495;-44
2023/03/15 02:13:22;;;;;;;52.78;4.80;;;;;;;;;;4974551;28;20039;-46
2023/03/15 02:15:52;;;;;;;42.05;3.85;;;;;;;;;;4965107;28;20069;-46
2023/03/15 02:18:24;;;;;;;56.55;4.60;;;;;;;;;;4975758;28;20074;-45
2023/03/15 02:21:03;;;;;;;41.83;3.67;;;;;;;;;;4964750;28;20414;-47
2023/03/15 02:23:31;;;;;;;37.17;3.50;;;;;;;;;;4981842;28;20048;-44
2023/03/15 02:26:07;;;;;;;49.75;4.03;;;;;;;;;;4981540;28;20050;-44
2023/03/15 02:28:34;;;;;;;75.93;5.63;;;;;;;;;;4980951;28;20472;-47
2023/03/15 02:31:01;;;;;;;82.25;6.38;;;;;;;;;;4979071;28;20078;-47
2023/03/15 02:33:40;;;;;;;45.50;4.30;;;;;;;;;;4983457;28;20416;-46
2023/03/15 02:36:10;;;;;;;61.67;5.07;;;;;;;;;;4975312;28;20093;-44
2023/03/15 02:38:36;;;;;;;36.20;3.80;;;;;;;;;;4981096;28;20046;-45
2023/03/15 02:41:03;;;;;;;38.50;3.25;;;;;;;;;;4980138;28;20054;-45
2023/03/15 02:43:30;;;;;;;68.45;5.00;;;;;;;;;;4979356;28;20418;-45
2023/03/15 02:45:58;;;;;;;35.92;2.95;;;;;;;;;;4983436;28;20062;-44
2023/03/15 02:48:25;;;;;;;31.33;2.85;;;;;;;;;;4981874;28;20046;-44
2023/03/15 02:50:51;;;;;;;50.70;4.65;;;;;;;;;;4978468;28;20038;-45
2023/03/15 02:53:18;;;;;;;37.08;3.65;;;;;;;;;;4982127;28;20046;-45
2023/03/15 02:55:44;;;;;;;58.17;4.82;;;;;;;;;;4980685;28;20046;-54
2023/03/15 02:58:11;;;;;;;37.70;3.03;;;;;;;;;;4970990;28;20058;-51
2023/03/15 03:00:38;;;;;;;43.20;3.55;;;;;;;;;;4980940;28;20042;-55
2023/03/15 03:03:05;;;;;;;24.63;2.67;;;;;;;;;;4980783;28;20047;-51
2023/03/15 03:05:31;;;;;;;25.00;2.55;;;;;;;;;;4980038;28;20045;-53
2023/03/15 03:07:58;;;;;;;31.85;3.10;;;;;;;;;;4987621;28;20587;-54
2023/03/15 03:10:24;;;;;;;50.38;4.28;;;;;;;;;;4977463;28;20069;-51
2023/03/15 03:12:54;;;;;;;33.60;3.55;;;;;;;;;;4977285;28;20049;-52
2023/03/15 03:15:39;;;;;;;43.33;4.00;;;;;;;;;;4978447;28;20078;-54
2023/03/15 03:18:05;;;;;;;43.83;4.25;;;;;;;;;;4979695;28;20112;-52
2023/03/15 03:20:32;;;;;;;51.17;4.60;;;;;;;;;;4979309;28;20046;-52
2023/03/15 03:22:58;;;;;;;36.10;3.67;;;;;;;;;;4978454;28;20130;-53
2023/03/15 03:25:26;;;;;;;44.33;4.18;;;;;;;;;;4978471;28;20058;-50
2023/03/15 03:27:55;;;;;;;56.90;4.55;;;;;;;;;;4976710;28;20045;-50
2023/03/15 03:30:24;;;;;;;22.88;2.95;;;;;;;;;;4977700;28;20043;-51
2023/03/15 03:32:50;;;;;;;38.72;3.95;;;;;;;;;;4980260;28;20035;-53
2023/03/15 03:35:19;;;;;;;47.65;4.55;;;;;;;;;;4979228;28;20031;-54
2023/03/15 03:37:48;;;;;;;49.53;4.43;;;;;;;;;;4981026;28;20491;-53
2023/03/15 03:40:19;;;;;;;53.38;4.68;;;;;;;;;;4979685;28;20097;-51
2023/03/15 03:42:45;;;;;;;29.60;3.65;;;;;;;;;;4977415;28;20059;-54
2023/03/15 03:45:15;;;;;;;42.28;3.75;;;;;;;;;;4980860;28;20484;-54
2023/03/15 03:47:43;;;;;;;68.00;5.50;;;;;;;;;;4977355;28;20096;-52
2023/03/15 03:50:10;;;;;;;43.10;3.90;;;;;;;;;;4985315;28;20047;-51
2023/03/15 03:52:36;;;;;;;72.18;5.68;;;;;;;;;;4980416;28;20043;-52
2023/03/15 03:55:13;;;;;;;65.32;5.60;;;;;;;;;;4977331;28;20039;-50
2023/03/15 03:57:41;;;;;;;78.30;6.28;;;;;;;;;;4976332;28;20050;-51
2023/03/15 04:00:15;;;;;;;62.85;5.30;;;;;;;;;;4972185;28;20530;-48
2023/03/15 04:02:42;;;;;;;51.45;4.60;;;;;;;;;;4976443;28;20093;-46
2023/03/15 04:05:11;;;;;;;27.40;3.80;;;;;;;;;;4986956;28;20108;-45
2023/03/15 04:07:38;;;;;;;56.78;5.60;;;;;;;;;;4979859;28;20066;-46
2023/03/15 04:10:05;;;;;;;34.28;3.65;;;;;;;;;;4977046;28;20043;-44
2023/03/15 04:12:33;;;;;;;32.90;4.75;;;;;;;;;;4978916;28;20043;-45
2023/03/15 04:15:00;;;;;;;50.35;9.40;;;;;;;;;;4972546;28;20066;-45
2023/03/15 04:17:30;;;;;;;28.58;8.32;;;;;;;;;;4981982;28;20042;-46
2023/03/15 04:19:58;;;;;;;67.90;11.27;;;;;;;;;;4977695;28;20157;-44
2023/03/15 04:22:26;;;;;;;88.20;14.82;;;;;;;;;;4979723;28;20125;-45
2023/03/15 04:25:25;;;;;;;44.17;10.35;;;;;;;;;;4920758;29;20074;-47
2023/03/15 04:28:09;;;;;;;55.30;8.05;;;;;;;;;;4898116;29;20056;-44
2023/03/15 04:31:02;;;;;;;55.50;7.28;;;;;;;;;;4922269;29;20143;-45
2023/03/15 04:33:38;;;;;;;40.30;6.80;;;;;;;;;;4898436;29;20066;-45
2023/03/15 04:36:24;;;;;;;50.78;6.63;;;;;;;;;;4922597;29;20099;-45
2023/03/15 04:39:09;;;;;;;48.42;5.25;;;;;;;;;;4928364;29;20155;-45
2023/03/15 04:41:55;;;;;;;56.25;5.63;;;;;;;;;;4910419;29;20051;-44
2023/03/15 04:44:30;;;;;;;48.20;5.13;;;;;;;;;;4908114;29;20040;-46
2023/03/15 04:47:07;;;;;;;39.17;5.55;;;;;;;;;;4908168;29;20059;-46
2023/03/15 04:49:47;;;;;;;79.05;8.98;;;;;;;;;;4915287;29;20056;-45
2023/03/15 04:52:36;;;;;;;56.15;6.82;;;;;;;;;;4918084;29;20059;-44
2023/03/15 04:55:20;;;;;;;33.20;5.88;;;;;;;;;;4894472;29;20456;-45
2023/03/15 04:58:05;;;;;;;82.05;9.02;;;;;;;;;;4919509;29;20146;-45
2023/03/15 05:00:31;;;;;;;64.90;8.52;;;;;;;;;;4921970;29;20040;-44
2023/03/15 05:03:19;;;;;;;43.50;5.32;;;;;;;;;;4980153;28;20058;-46
2023/03/15 05:06:06;;;;;;;18.70;4.45;;;;;;;;;;4981456;28;20479;-44
2023/03/15 05:08:53;;;;;;;49.60;6.53;;;;;;;;;;4974886;28;20050;-52
2023/03/15 05:11:46;;;;;;;;;;;;;;;;;;4940334;29;20057;-49
2023/03/15 05:14:31;;;;;;;49.15;6.40;;;;;;;;;;4940300;29;19929;-51
2023/03/15 05:17:21;;;;;;;36.83;5.28;;;;;;;;;;4866656;29;20057;-51
2023/03/15 05:20:11;;;;;;;37.60;5.63;;;;;;;;;;4861781;29;20042;-52
2023/03/15 05:22:57;;;;;;;41.38;5.10;;;;;;;;;;4867813;29;20540;-53
2023/03/15 05:25:40;;;;;;;69.40;7.20;;;;;;;;;;4882092;29;20046;-53
2023/03/15 05:28:23;;;;;;;44.88;5.70;;;;;;;;;;4862618;29;20125;-50
2023/03/15 05:31:07;;;;;;;22.00;4.15;;;;;;;;;;4882824;29;20049;-51
2023/03/15 05:33:53;;;;;;;52.42;5.82;;;;;;;;;;4864349;29;20122;-53
2023/03/15 05:36:37;;;;;;;18.40;3.97;;;;;;;;;;4864724;29;20605;-53
2023/03/15 05:39:33;;;;;;;44.38;5.88;;;;;;;;;;4885728;29;20486;-55
2023/03/15 05:42:38;;;;;;;31.60;4.47;;;;;;;;;;4836541;29;20057;-52
2023/03/15 05:45:25;;;;;;;44.25;5.28;;;;;;;;;;4831924;29;20062;-52
2023/03/15 05:47:51;;;;;;;47.13;5.95;;;;;;;;;;4840189;29;20065;-52
2023/03/15 05:50:42;;;;;;;59.63;6.57;;;;;;;;;;4854631;29;20048;-54
2023/03/15 05:53:27;;;;;;;42.33;5.95;;;;;;;;;;4857714;29;20081;-50
2023/03/15 05:56:16;;;;;;;38.05;5.10;;;;;;;;;;4902039;29;20054;-49
2023/03/15 05:59:09;;;;;;;61.08;6.65;;;;;;;;;;4896670;29;20079;-50
2023/03/15 06:01:45;;;;;;;61.83;7.55;;;;;;;;;;4887796;29;20139;-54
2023/03/15 06:04:19;;;;;;;50.13;5.88;;;;;;;;;;4888572;29;20584;-53
2023/03/15 06:06:46;;;;;;;39.35;5.35;;;;;;;;;;4887745;29;20054;-52
2023/03/15 06:09:13;;;;;;;38.53;4.97;;;;;;;;;;4886433;29;20045;-53
2023/03/15 06:11:39;;;;;;;80.35;7.78;;;;;;;;;;4900151;29;20045;-50
2023/03/15 06:14:09;;;;;;;33.78;5.22;;;;;;;;;;4955586;28;20065;-47
2023/03/15 06:16:43;;;;;;;36.85;4.53;;;;;;;;;;4980308;28;20080;-44
2023/03/15 06:19:10;;;;;;;58.33;6.28;;;;;;;;;;4980032;28;20051;-45
2023/03/15 06:21:36;;;;;;;33.10;4.22;;;;;;;;;;4979905;28;20423;-46
2023/03/15 06:24:09;;;;;;;37.67;4.70;;;;;;;;;;4980994;28;20050;-46
2023/03/15 06:26:36;;;;;;;57.92;6.25;;;;;;;;;;4981977;28;20492;-44
2023/03/15 06:29:03;;;;;;;65.13;7.03;;;;;;;;;;4974456;28;20109;-45
2023/03/15 06:31:31;;;;;;;56.72;6.53;;;;;;;;;;4981693;28;20529;-45
2023/03/15 06:34:03;;;;;;;46.00;5.25;;;;;;;;;;4977068;28;20066;-45
2023/03/15 06:36:30;;;;;;;27.23;4.38;;;;;;;;;;4981870;28;20069;-45
2023/03/15 06:38:57;;;;;;;54.38;6.55;;;;;;;;;;4983356;28;20042;-46
2023/03/15 06:41:23;;;;;;;63.80;8.38;;;;;;;;;;4979087;28;20073;-45
2023/03/15 06:43:55;;;;;;;58.63;9.13;;;;;;;;;;4979203;28;20049;-46
2023/03/15 06:46:22;;;;;;;42.85;7.13;;;;;;;;;;4977878;28;20047;-44
2023/03/15 06:48:48;;;;;;;52.17;7.43;;;;;;;;;;4982231;28;20042;-46
2023/03/15 06:51:15;;;;;;;42.50;6.90;;;;;;;;;;4978335;28;20142;-47
2023/03/15 06:53:41;;;;;;;55.63;8.13;;;;;;;;;;4981173;28;20039;-45
2023/03/15 06:56:08;;;;;;;81.00;9.20;;;;;;;;;;4978815;28;20384;-46
2023/03/15 06:58:35;;;;;;;69.32;7.55;;;;;;;;;;4978109;28;20125;-45
2023/03/15 07:01:01;;;;;;;40.88;6.20;;;;;;;;;;4981423;28;20050;-43
2023/03/15 07:03:28;;;;;;;55.45;6.95;;;;;;;;;;4981538;28;20065;-43
2023/03/15 07:05:54;;;;;;;65.97;7.55;;;;;;;;;;4979075;28;20059;-45
2023/03/15 07:08:22;;;;;;;42.53;5.03;;;;;;;;;;4980678;28;20031;-46
2023/03/15 07:10:49;;;;;;;75.72;7.95;;;;;;;;;;4980868;28;20046;-45
2023/03/15 07:13:16;;;;;;;45.22;6.05;;;;;;;;;;4981142;28;20045;-45
2023/03/15 07:15:43;;;;;;;48.22;6.63;;;;;;;;;;4980505;28;20487;-45
2023/03/15 07:18:09;;;;;;;53.90;6.85;;;;;;;;;;4979488;28;20058;-45
2023/03/15 07:20:36;;;;;;;53.90;7.38;;;;;;;;;;4976784;28;20105;-53
2023/03/15 07:23:03;;;;;;;41.03;5.25;;;;;;;;;;4979945;28;20034;-52
2023/03/15 07:25:29;;;;;;;102.05;9.48;;;;;;;;;;4984371;28;20463;-51
2023/03/15 07:27:56;;;;;;;46.08;6.00;;;;;;;;;;4979920;28;20053;-51
2023/03/15 07:30:22;;;;;;;35.22;4.63;;;;;;;;;;4979397;28;20192;-50
2023/03/15 07:32:49;;;;;;;65.65;9.02;;;;;;;;;;4981180;28;20034;-49
2023/03/15 07:35:17;;;;;;;38.42;5.70;;;;;;;;;;4981066;28;20065;-54
2023/03/15 07:37:43;;;;;;;56.63;6.40;;;;;;;;;;4979788;28;20073;-55
2023/03/15 07:40:11;;;;;;;66.88;7.65;;;;;;;;;;4978569;28;20117;-52
2023/03/15 07:42:38;;;;;;;39.13;6.07;;;;;;;;;;4979504;28;20046;-53
2023/03/15 07:45:06;;;;;;;52.15;7.20;;;;;;;;;;4983128;28;20046;-52
2023/03/15 07:47:33;;;;;;;59.78;7.85;;;;;;;;;;4982489;28;20038;-52
2023/03/15 07:49:59;;;;;;;47.22;6.57;;;;;;;;;;4979143;28;20038;-53
2023/03/15 07:52:26;;;;;;;56.58;7.45;;;;;;;;;;4979484;28;20053;-53
2023/03/15 07:54:52;;;;;;;63.10;7.85;;;;;;;;;;4981073;28;20469;-53
2023/03/15 07:57:18;;;;;;;62.50;9.60;;;;;;;;;;4978165;28;20038;-53
2023/03/15 07:59:45;;;;;;;51.70;8.70;;;;;;;;;;4980774;28;20039;-54
2023/03/15 08:02:12;;;;;;;56.17;7.78;;;;;;;;;;4978953;28;20118;-51
2023/03/15 08:04:39;;;;;;;77.75;9.02;;;;;;;;;;4978729;28;20583;-54
2023/03/15 08:07:05;;;;;;;33.60;5.65;;;;;;;;;;4978387;28;20058;-55
2023/03/15 08:09:33;;;;;;;50.47;6.47;;;;;;;;;;4980242;28;20150;-56
2023/03/15 08:12:00;;;;;;;47.53;6.55;;;;;;;;;;4980334;28;20121;-53
2023/03/15 08:14:27;;;;;;;61.58;7.57;;;;;;;;;;4980278;28;20052;-51
2023/03/15 08:20:21;;;;;;;70.25;7.60;;;;;;;;;;4982045;28;20399;-50
2023/03/15 08:22:48;;;;;;;80.93;9.40;;;;;;;;;;4975295;28;20070;-45
2023/03/15 08:25:16;;;;;;;34.50;5.65;;;;;;;;;;4979510;28;20054;-45
2023/03/15 08:27:43;;;;;;;53.03;6.30;;;;;;;;;;4977081;28;20081;-45
2023/03/15 08:30:13;;;;;;;46.20;6.88;;;;;;;;;;4975769;28;20046;-45
2023/03/15 08:32:41;;;;;;;50.83;7.20;;;;;;;;;;4982427;28;20505;-46
2023/03/15 08:35:08;;;;;;;37.65;6.70;;;;;;;;;;4981315;28;20113;-48
2023/03/15 08:37:34;;;;;;;42.85;6.55;;;;;;;;;;4979838;28;20117;-47
2023/03/15 08:40:04;;;;;;;46.22;6.72;;;;;;;;;;4978703;28;20062;-45
2023/03/15 08:42:30;;;;;;;60.47;8.05;;;;;;;;;;4973719;28;20585;-49
2023/03/15 08:44:58;;;;;;;46.28;5.95;;;;;;;;;;4982224;28;20050;-44
2023/03/15 08:47:25;;;;;;;66.82;7.43;;;;;;;;;;4979392;28;20042;-46
2023/03/15 08:49:52;;;;;;;59.25;6.28;;;;;;;;;;4979978;28;20043;-44
2023/03/15 08:52:20;;;;;;;57.35;6.88;;;;;;;;;;4978721;28;20050;-44
2023/03/15 08:54:47;;;;;;;65.85;6.43;;;;;;;;;;4977401;28;20050;-46
2023/03/15 08:57:13;;;;;;;42.67;6.05;;;;;;;;;;4983016;28;20041;-47
2023/03/15 08:59:40;;;;;;;47.22;6.35;;;;;;;;;;4980089;28;20050;-45
2023/03/15 09:02:08;;;;;;;50.92;6.32;;;;;;;;;;4974688;28;20044;-46
2023/03/15 09:04:34;;;;;;;75.13;8.45;;;;;;;;;;4978115;28;20109;-46
2023/03/15 09:07:01;;;;;;;59.65;8.48;;;;;;;;;;4979999;28;20459;-45
2023/03/15 09:09:27;;;;;;;45.00;6.97;;;;;;;;;;4980075;28;20047;-47
2023/03/15 09:11:55;;;;;;;46.33;6.18;;;;;;;;;;4976904;28;20035;-47
2023/03/15 09:14:21;;;;;;;66.35;8.35;;;;;;;;;;4979446;28;20042;-45
2023/03/15 09:16:47;;;;;;;45.38;6.38;;;;;;;;;;4977284;28;20047;-47
2023/03/15 09:19:14;;;;;;;36.05;6.05;;;;;;;;;;4980535;28;20054;-46
2023/03/15 09:21:41;;;;;;;48.13;6.15;;;;;;;;;;4984408;28;20054;-45
2023/03/15 09:24:10;;;;;;;42.63;6.22;;;;;;;;;;4974769;28;20495;-45
2023/03/15 09:26:39;;;;;;;42.25;6.07;;;;;;;;;;4983271;28;20043;-45
2023/03/15 09:29:08;;;;;;;42.28;6.93;;;;;;;;;;4976300;28;20062;-52
2023/03/15 09:31:34;;;;;;;63.83;7.22;;;;;;;;;;4980766;28;20046;-51
2023/03/15 09:34:01;;;;;;;35.80;5.57;;;;;;;;;;4986019;28;20762;-51
2023/03/15 09:36:28;;;;;;;43.40;6.35;;;;;;;;;;4981525;28;20042;-52
2023/03/15 09:38:54;;;;;;;39.13;5.45;;;;;;;;;;4980785;28;20046;-52
2023/03/15 09:41:41;;;;;;;35.63;5.80;;;;;;;;;;4983817;28;20551;-49
2023/03/15 09:44:13;;;;;;;66.68;7.97;;;;;;;;;;4983835;28;20448;-53
2023/03/15 09:46:48;;;;;;;51.42;7.25;;;;;;;;;;4979602;28;20054;-53
2023/03/15 09:49:32;;;;;;;36.15;6.97;;;;;;;;;;4981576;28;20832;-53
2023/03/15 09:52:05;;;;;;;46.90;6.90;;;;;;;;;;4976225;28;20055;-52
2023/03/15 09:54:39;;;;;;;37.72;5.20;;;;;;;;;;4986934;28;20050;-51
2023/03/15 09:57:13;;;;;;;59.10;6.70;;;;;;;;;;4981932;28;20499;-51
2023/03/15 09:59:41;;;;;;;35.05;4.72;;;;;;;;;;4977398;28;20030;-51
2023/03/15 10:02:22;;;;;;;67.03;6.88;;;;;;;;;;4981719;28;20053;-54
2023/03/15 10:04:52;;;;;;;41.63;5.15;;;;;;;;;;4982376;28;20443;-55
2023/03/15 10:07:18;;;;;;;47.50;6.07;;;;;;;;;;4983600;28;20412;-56
2023/03/15 10:09:45;;;;;;;53.33;6.20;;;;;;;;;;4983475;28;20042;-53
2023/03/15 10:12:13;;;;;;;28.83;3.40;;;;;;;;;;4981697;28;20047;-53
2023/03/15 10:14:52;;;;;;;66.65;8.32;;;;;;;;;;4980361;28;20039;-51
2023/03/15 10:17:34;;;;;;;39.22;4.25;;;;;;;;;;4982406;28;20038;-50
2023/03/15 10:20:26;;;;;;;67.30;6.65;;;;;;;;;;4979593;28;20174;-52
2023/03/15 10:23:08;;;;;;;42.35;5.00;;;;;;;;;;4977724;28;20058;-51
2023/03/15 10:25:36;;;;;;;51.72;5.75;;;;;;;;;;4977022;28;20084;-55
2023/03/15 10:28:11;;;;;;;36.15;4.03;;;;;;;;;;4980312;28;20042;-47
2023/03/15 10:30:38;;;;;;;60.28;6.60;;;;;;;;;;4977377;28;20461;-43
2023/03/15 10:33:19;;;;;;;37.47;4.43;;;;;;;;;;4978280;28;20039;-44
2023/03/15 10:35:45;;;;;;;65.85;6.22;;;;;;;;;;4977774;28;20042;-44
2023/03/15 10:38:16;;;;;;;58.33;6.28;;;;;;;;;;4982626;28;20041;-44
2023/03/15 10:40:45;;;;;;;55.67;5.70;;;;;;;;;;4981497;28;20545;-45
2023/03/15 10:43:17;;;;;;;74.43;7.28;;;;;;;;;;4982309;28;20511;-46
2023/03/15 10:45:57;;;;;;;44.27;5.33;;;;;;;;;;4977728;28;20117;-44
2023/03/15 10:48:24;;;;;;;68.47;6.55;;;;;;;;;;4980626;28;20104;-44
2023/03/15 10:50:51;;;;;;;30.40;3.88;;;;;;;;;;4981958;28;20499;-46
2023/03/15 10:53:21;;;;;;;42.13;5.10;;;;;;;;;;4981476;28;20060;-45
2023/03/15 10:55:48;;;;;;;79.70;7.63;;;;;;;;;;4979816;28;20050;-46
2023/03/15 10:58:25;;;;;;;33.30;4.30;;;;;;;;;;4980469;28;20047;-46
2023/03/15 11:01:00;;;;;;;37.17;4.55;;;;;;;;;;4980081;28;20051;-44
2023/03/15 11:03:27;;;;;;;26.85;4.43;;;;;;;;;;4972315;28;20043;-47
2023/03/15 11:05:55;;;;;;;51.00;6.65;;;;;;;;;;4982055;28;20100;-43
2023/03/15 11:08:23;;;;;;;67.85;6.95;;;;;;;;;;4981135;28;20042;-44
2023/03/15 11:10:57;;;;;;;61.15;7.13;;;;;;;;;;4980675;28;20038;-45
2023/03/15 11:13:23;;;;;;;;;;;;;;;;;;4980702;28;20042;-46
2023/03/15 11:16:09;;;;;;;61.03;7.03;;;;;;;;;;4980514;28;19929;-46
2023/03/15 11:18:41;;;;;;;30.05;4.20;;;;;;;;;;4977882;28;20046;-48
2023/03/15 11:21:09;;;;;;;64.18;6.82;;;;;;;;;;4976652;28;20050;-44
2023/03/15 11:23:38;;;;;;;47.55;5.32;;;;;;;;;;4975060;28;20038;-45
2023/03/15 11:26:05;;;;;;;42.08;5.65;;;;;;;;;;4982283;28;20039;-45
2023/03/15 11:28:34;;;;;;;61.97;6.47;;;;;;;;;;4979479;28;20046;-45
2023/03/15 11:31:03;;;;;;;58.58;6.95;;;;;;;;;;4974172;28;20043;-53
2023/03/15 11:33:36;;;;;;;36.97;5.93;;;;;;;;;;4977319;28;20495;-50
2023/03/15 11:36:05;;;;;;;41.92;5.85;;;;;;;;;;4971767;28;20051;-54
2023/03/15 11:38:33;;;;;;;28.48;5.20;;;;;;;;;;4984733;28;20503;-50
2023/03/15 11:41:03;;;;;;;53.90;7.05;;;;;;;;;;4979694;28;20145;-53
2023/03/15 11:43:40;;;;;;;49.90;6.25;;;;;;;;;;4979998;28;20047;-51
2023/03/15 11:46:15;;;;;;;46.75;5.88;;;;;;;;;;4974818;28;20050;-52
2023/03/15 11:48:47;;;;;;;34.92;4.90;;;;;;;;;;4974715;28;20104;-55
2023/03/15 11:51:14;;;;;;;54.95;6.78;;;;;;;;;;4982927;28;20547;-53
2023/03/15 11:53:46;;;;;;;68.20;7.13;;;;;;;;;;4980765;28;20035;-52
2023/03/15 11:56:24;;;;;;;34.53;5.20;;;;;;;;;;4977232;28;20110;-51
2023/03/15 11:59:11;;;;;;;76.35;8.52;;;;;;;;;;4980442;28;20046;-52
2023/03/15 12:02:01;;;;;;;51.60;6.63;;;;;;;;;;4977020;28;20043;-53
2023/03/15 12:04:28;;;;;;;38.50;4.55;;;;;;;;;;4908661;29;20063;-55
2023/03/15 12:06:55;;;;;;;37.45;4.95;;;;;;;;;;4910520;29;20078;-53
2023/03/15 12:09:30;;;;;;;58.50;6.57;;;;;;;;;;4909722;29;20134;-52
2023/03/15 12:11:57;;;;;;;41.22;5.10;;;;;;;;;;4908016;29;20056;-52
2023/03/15 12:14:27;;;;;;;32.53;4.05;;;;;;;;;;4910139;29;20132;-53
2023/03/15 12:17:15;;;;;;;43.80;4.93;;;;;;;;;;4909687;29;20059;-56
2023/03/15 12:19:42;;;;;;;73.88;7.28;;;;;;;;;;4906171;29;20068;-51
2023/03/15 12:22:15;;;;;;;62.10;6.25;;;;;;;;;;4910528;29;20075;-53
2023/03/15 12:24:44;;;;;;;54.28;6.53;;;;;;;;;;4909531;29;20066;-54
2023/03/15 12:27:15;;;;;;;54.35;6.40;;;;;;;;;;4909325;29;20051;-54
2023/03/15 12:29:43;;;;;;;46.33;5.47;;;;;;;;;;4909259;29;20056;-54
2023/03/15 12:32:12;;;;;;;136.98;13.57;;;;;;;;;;4906719;29;20040;-49
2023/03/15 12:34:44;;;;;;;103.40;14.30;;;;;;;;;;4907991;29;20051;-45
2023/03/15 12:37:13;;;;;;;49.53;6.53;;;;;;;;;;4911002;29;20048;-46
2023/03/15 12:39:42;;;;;;;38.25;5.07;;;;;;;;;;4909593;29;20060;-44
2023/03/15 12:42:32;;;;;;;44.17;5.30;;;;;;;;;;4958831;28;20051;-46
2023/03/15 12:45:32;;;;;;;25.73;4.13;;;;;;;;;;4955638;28;20091;-46
2023/03/15 12:48:00;;;;;;;51.97;6.90;;;;;;;;;;4954554;28;20563;-46
2023/03/15 12:50:44;;;;;;;49.72;4.95;;;;;;;;;;4957411;28;20054;-44
2023/03/15 12:53:29;;;;;;;50.15;5.20;;;;;;;;;;4961151;28;20090;-45
2023/03/15 12:56:17;;;;;;;29.50;3.63;;;;;;;;;;4961855;28;20068;-45
2023/03/15 12:58:45;;;;;;;55.75;5.53;;;;;;;;;;4959496;28;20151;-46
2023/03/15 13:01:15;;;;;;;56.53;6.68;;;;;;;;;;4963352;28;20062;-46
2023/03/15 13:03:42;;;;;;;59.20;6.28;;;;;;;;;;4959793;28;20062;-47
2023/03/15 13:06:10;;;;;;;62.10;7.32;;;;;;;;;;4958721;28;20453;-46
2023/03/15 13:08:45;;;;;;;39.30;5.75;;;;;;;;;;4959556;28;20061;-44
2023/03/15 13:11:14;;;;;;;52.05;5.82;;;;;;;;;;4962113;28;20057;-45
2023/03/15 13:13:41;;;;;;;107.65;9.88;;;;;;;;;;4958081;28;20440;-45
2023/03/15 13:16:24;;;;;;;52.75;6.38;;;;;;;;;;4959626;28;20059;-47
2023/03/15 13:19:04;;;;;;;82.75;8.90;;;;;;;;;;4956521;28;20075;-46
2023/03/15 13:21:33;;;;;;;49.75;5.85;;;;;;;;;;4958307;28;20499;-46
2023/03/15 13:24:08;;;;;;;51.10;6.13;;;;;;;;;;4986108;28;20046;-44
2023/03/15 13:26:44;;;;;;;33.55;4.30;;;;;;;;;;4983139;28;20113;-45
2023/03/15 13:29:16;;;;;;;42.33;5.25;;;;;;;;;;4978089;28;20406;-46
2023/03/15 13:31:43;;;;;;;79.85;7.78;;;;;;;;;;4982132;28;20125;-45
2023/03/15 13:34:11;;;;;;;34.15;5.20;;;;;;;;;;4976034;28;20035;-50
2023/03/15 13:36:38;;;;;;;40.50;5.30;;;;;;;;;;4984505;28;20041;-53
2023/03/15 13:39:09;;;;;;;24.02;4.22;;;;;;;;;;4981852;28;21032;-53
2023/03/15 13:41:37;;;;;;;37.53;5.00;;;;;;;;;;4983740;28;20047;-50
2023/03/15 13:44:11;;;;;;;45.15;4.88;;;;;;;;;;4979663;28;20049;-51
2023/03/15 13:46:38;;;;;;;55.47;6.55;;;;;;;;;;4984091;28;20051;-54
2023/03/15 13:49:05;;;;;;;29.08;4.72;;;;;;;;;;4984602;28;20042;-53
2023/03/15 13:51:33;;;;;;;50.60;6.03;;;;;;;;;;4982009;28;20125;-51
2023/03/15 13:54:02;;;;;;;31.55;5.20;;;;;;;;;;4980797;28;20566;-53
2023/03/15 13:56:31;;;;;;;29.95;4.93;;;;;;;;;;4983431;28;20043;-51
2023/03/15 13:59:14;;;;;;;34.60;4.97;;;;;;;;;;4984893;28;20058;-50
2023/03/15 14:01:41;;;;;;;77.75;7.85;;;;;;;;;;4982936;28;20421;-50
2023/03/15 14:04:11;;;;;;;70.20;7.72;;;;;;;;;;4979919;28;20072;-50
2023/03/15 14:06:38;;;;;;;32.92;4.80;;;;;;;;;;4978922;28;20042;-56
2023/03/15 14:09:18;;;;;;;42.72;6.05;;;;;;;;;;4982434;28;20042;-51
2023/03/15 14:11:45;;;;;;;55.67;6.63;;;;;;;;;;4984199;28;20038;-51
2023/03/15 14:14:25;;;;;;;33.50;5.22;;;;;;;;;;4981650;28;20039;-50
2023/03/15 14:16:52;;;;;;;35.03;6.35;;;;;;;;;;4979013;28;20121;-55
2023/03/15 14:19:32;;;;;;;59.03;7.65;;;;;;;;;;4977465;28;20058;-53
2023/03/15 14:22:00;;;;;;;55.35;6.88;;;;;;;;;;4982871;28;20044;-51
2023/03/15 14:24:33;;;;;;;41.55;6.57;;;;;;;;;;4982410;28;20035;-53
2023/03/15 14:27:03;;;;;;;33.10;5.20;;;;;;;;;;4979948;28;20054;-54
2023/03/15 14:29:31;;;;;;;27.58;6.13;;;;;;;;;;4979977;28;20050;-50
2023/03/15 14:32:00;;;;;;;35.53;8.18;;;;;;;;;;4982592;28;20108;-50
2023/03/15 14:34:32;;;;;;;54.90;10.27;;;;;;;;;;4982163;28;20041;-52
2023/03/15 14:37:03;;;;;;;57.60;8.20;;;;;;;;;;4976601;28;20062;-44
2023/03/15 14:39:35;;;;;;;60.30;9.18;;;;;;;;;;4980191;28;20368;-44
2023/03/15 14:42:02;;;;;;;57.33;8.77;;;;;;;;;;4977888;28;20471;-46
2023/03/15 14:44:28;;;;;;;50.90;16.33;;;;;;;;;;4982723;28;20046;-44
2023/03/15 14:46:55;;;;;;;78.78;11.95;;;;;;;;;;4981826;28;20101;-45
2023/03/15 14:49:23;;;;;;;68.10;7.22;;;;;;;;;;4979516;28;20047;-46
2023/03/15 14:51:55;;;;;;;53.92;8.98;;;;;;;;;;4981320;28;20098;-44
2023/03/15 14:54:22;;;;;;;54.00;8.15;;;;;;;;;;4979750;28;20051;-44
2023/03/15 14:56:49;;;;;;;48.63;6.45;;;;;;;;;;4979912;28;20042;-46